CheckWX is a tool to help pilots better visualize weather data.  It is not intended as a substitute for an official pre-flight weather briefing.

19:00:48 UTC

YMML TAF
Melbourne International Airport
Melbourne, Australia
TAF YMML 221713Z 2218/2324 16008KT 9999 BKN020 FM230000 17014KT CAVOK FM230900 22007KT CAVOK FM231300 VRB05KT CAVOK FM232200 36014KT CAVOK PROB30 2316/2321 3000 BR BKN005

Feb-22@
18:00 UTC

Feb-22 @ 18:00 UTC

Feb-23@
00:00 UTC

Feb-23 @ 00:00 UTC

TAF YMML 221713Z 2218/2324 16008KT 9999 BKN020
Wind
  • 160° at 8 KTS
Cloud Levels
  • Broken at 2,000' AGL

Feb-23@
00:00 UTC

Feb-23 @ 00:00 UTC

Feb-23@
09:00 UTC

Feb-23 @ 09:00 UTC

FM230000 17014KT CAVOK

From

FromStandard forecast or significant change

Wind
  • 170° at 14 KTS
Conditions
No significant weather
Cloud Levels
  • No significant clouds

Feb-23@
09:00 UTC

Feb-23 @ 09:00 UTC

Feb-23@
13:00 UTC

Feb-23 @ 13:00 UTC

FM230900 22007KT CAVOK

From

FromStandard forecast or significant change

Wind
  • 220° at 7 KTS
Conditions
No significant weather
Cloud Levels
  • No significant clouds

Feb-23@
13:00 UTC

Feb-23 @ 13:00 UTC

Feb-23@
22:00 UTC

Feb-23 @ 22:00 UTC

FM231300 VRB05KT CAVOK

From

FromStandard forecast or significant change

Wind
  • Variable at 5 KTS
Conditions
No significant weather
Cloud Levels
  • No significant clouds

Feb-23@
16:00 UTC

Feb-23 @ 16:00 UTC

Feb-23@
21:00 UTC

Feb-23 @ 21:00 UTC

PROB30 2316/2321 3000 BR BKN005

Probable - 30% Likelihood

Probable - 30% Likelihood during this time.

Conditions
Mist
Cloud Levels
  • Broken at 500' AGL

Feb-23@
22:00 UTC

Feb-23 @ 22:00 UTC

Feb-24@
00:00 UTC

Feb-24 @ 00:00 UTC

FM232200 36014KT CAVOK

From

FromStandard forecast or significant change

Wind
  • 360° at 14 KTS
Conditions
No significant weather
Cloud Levels
  • No significant clouds